createdAt,value
2016-12-29T00:08:40.365Z,0
2016-12-29T00:18:52.102Z,0
2016-12-29T00:29:03.848Z,0
2016-12-29T00:39:15.613Z,0
2016-12-29T00:49:27.416Z,0
2016-12-29T00:59:39.210Z,0
2016-12-29T01:09:51.038Z,0
2016-12-29T01:20:02.904Z,0
2016-12-29T01:30:14.826Z,0
2016-12-29T01:40:26.729Z,0
2016-12-29T01:50:38.640Z,0
2016-12-29T02:00:50.572Z,0
2016-12-29T02:11:02.483Z,0
2016-12-29T02:21:14.457Z,0
2016-12-29T02:31:26.390Z,0
2016-12-29T02:41:38.390Z,0
2016-12-29T02:51:50.463Z,0
2016-12-29T03:02:02.509Z,0
2016-12-29T03:12:14.582Z,0
2016-12-29T03:22:26.703Z,0
2016-12-29T03:32:38.787Z,0
2016-12-29T03:42:50.945Z,0
2016-12-29T03:53:03.048Z,0
2016-12-29T04:03:15.154Z,0
2016-12-29T04:13:27.283Z,0
2016-12-29T04:23:39.432Z,0
2016-12-29T04:33:51.594Z,0
2016-12-29T04:44:03.695Z,0
2016-12-29T04:54:15.847Z,0
2016-12-29T05:04:27.951Z,0
2016-12-29T05:14:40.061Z,0
2016-12-29T05:24:52.182Z,0
2016-12-29T05:35:04.339Z,0
2016-12-29T05:45:16.537Z,0
2016-12-29T05:55:28.736Z,0
2016-12-29T06:05:40.940Z,0
2016-12-29T06:15:53.163Z,0
2016-12-29T06:26:05.349Z,0
2016-12-29T06:36:17.519Z,0
2016-12-29T06:46:29.636Z,0
2016-12-29T06:56:41.809Z,0
2016-12-29T07:06:53.990Z,0
2016-12-29T07:17:06.167Z,0
2016-12-29T07:27:18.390Z,10
2016-12-29T07:37:30.606Z,25
2016-12-29T07:47:42.789Z,70
2016-12-29T07:57:54.858Z,155
2016-12-29T08:08:06.704Z,265
2016-12-29T08:18:18.384Z,390
2016-12-29T08:28:29.869Z,510
2016-12-29T08:38:41.200Z,625
2016-12-29T08:48:52.490Z,730
2016-12-29T08:59:03.477Z,805
2016-12-29T09:09:14.422Z,845
2016-12-29T09:19:25.242Z,1105
2016-12-29T09:29:35.960Z,1130
2016-12-29T09:39:46.644Z,1265
2016-12-29T09:49:57.288Z,1355
2016-12-29T10:00:07.855Z,1385
2016-12-29T10:10:18.360Z,1505
2016-12-29T10:20:28.874Z,1575
2016-12-29T10:30:39.310Z,1595
2016-12-29T10:40:49.631Z,1630
2016-12-29T10:50:59.918Z,1650
2016-12-29T11:01:10.243Z,1630
2016-12-29T11:11:20.579Z,1610
2016-12-29T11:21:30.841Z,1625
2016-12-29T11:31:41.058Z,1670
2016-12-29T11:41:51.183Z,1710
2016-12-29T11:52:01.263Z,1630
2016-12-29T12:02:11.278Z,1545
2016-12-29T12:12:21.198Z,1580
2016-12-29T12:22:31.148Z,1415
2016-12-29T12:32:41.073Z,1335
2016-12-29T12:42:51.048Z,1570
2016-12-29T12:53:00.953Z,1485
2016-12-29T13:03:10.824Z,1420
2016-12-29T13:13:20.643Z,1285
2016-12-29T13:23:30.394Z,1215
2016-12-29T13:33:40.174Z,1085
2016-12-29T13:43:49.940Z,1040
2016-12-29T13:53:59.722Z,940
2016-12-29T14:04:09.551Z,890
2016-12-29T14:14:19.357Z,745
2016-12-29T14:24:29.273Z,625
2016-12-29T14:34:39.296Z,510
2016-12-29T14:44:49.402Z,370
2016-12-29T14:54:59.676Z,260
2016-12-29T15:05:10.113Z,170
2016-12-29T15:15:20.765Z,80
2016-12-29T15:25:31.718Z,30
2016-12-29T15:35:43.002Z,10
2016-12-29T15:45:54.569Z,0
2016-12-29T15:56:06.210Z,0
2016-12-29T16:06:18.028Z,0
2016-12-29T16:16:29.891Z,0
2016-12-29T16:26:41.792Z,0
2016-12-29T16:36:53.664Z,0
2016-12-29T16:47:05.551Z,0
2016-12-29T16:57:17.521Z,0
2016-12-29T17:07:29.534Z,0
2016-12-29T17:17:41.493Z,0
2016-12-29T17:27:53.463Z,0
2016-12-29T17:38:05.406Z,0
2016-12-29T17:48:17.404Z,0
2016-12-29T17:58:29.430Z,0
2016-12-29T18:08:41.499Z,0
2016-12-29T18:18:53.511Z,0
2016-12-29T18:29:05.514Z,0
2016-12-29T18:39:17.547Z,0
2016-12-29T18:49:29.557Z,0
2016-12-29T18:59:41.606Z,0
2016-12-29T19:09:53.659Z,0
2016-12-29T19:20:05.757Z,0
2016-12-29T19:30:17.865Z,0
2016-12-29T19:40:29.989Z,0
2016-12-29T19:50:42.110Z,0
2016-12-29T20:00:54.320Z,0
2016-12-29T20:11:06.504Z,0
2016-12-29T20:21:18.681Z,0
2016-12-29T20:31:30.883Z,0
2016-12-29T20:41:43.087Z,0
2016-12-29T20:51:55.353Z,0
2016-12-29T21:02:07.582Z,0
2016-12-29T21:12:19.832Z,0
2016-12-29T21:22:32.134Z,0
2016-12-29T21:32:44.451Z,0
2016-12-29T21:42:56.796Z,0
2016-12-29T21:53:09.158Z,0
2016-12-29T22:03:21.515Z,0
2016-12-29T22:13:33.859Z,0
2016-12-29T22:23:46.206Z,0
2016-12-29T22:33:58.568Z,0
2016-12-29T22:44:10.951Z,0
2016-12-29T22:54:23.328Z,0
2016-12-29T23:04:35.745Z,0
2016-12-29T23:14:48.173Z,0
2016-12-29T23:25:00.577Z,0
2016-12-29T23:35:13.005Z,0
2016-12-29T23:45:25.432Z,0
2016-12-29T23:55:37.884Z,0
